Time;durP1;ratioP1;P1;durP2;ratioP2;P2;SDS_P1;SDS_P2;PMS_P1;PMS_P2;Temp;Humidity;BMP_temperature;BMP_pressure;BME280_temperature;BME280_humidity;BME280_pressure;Samples;Min_cycle;Max_cycle;Signal;HPM_P1;HPM_P2
2021/12/15 00:00:39;;;;;;;8.48;4.55;;;;;;;19.10;39.91;101675.28;2077070;28;20060;-74
2021/12/15 00:01:44;;;;;;;11.25;5.03;;;;;;;19.07;39.87;101667.72;2080307;28;21258;-75
2021/12/15 00:02:51;;;;;;;18.63;8.48;;;;;;;19.08;40.27;101672.91;2076703;28;20128;-70
2021/12/15 00:03:56;;;;;;;8.70;4.85;;;;;;;19.06;39.97;101685.31;2075926;28;20054;-71
2021/12/15 00:05:02;;;;;;;8.07;4.53;;;;;;;19.10;39.69;101681.59;2077121;28;20049;-71
2021/12/15 00:06:12;;;;;;;12.02;4.30;;;;;;;19.09;40.51;101674.50;2077500;28;20072;-70
2021/12/15 00:07:16;;;;;;;8.13;4.50;;;;;;;19.05;39.47;101683.72;2077388;28;20064;-76
2021/12/15 00:08:21;;;;;;;7.80;4.28;;;;;;;19.09;39.81;101679.16;2076746;28;20080;-75
2021/12/15 00:09:25;;;;;;;9.20;4.80;;;;;;;19.08;39.69;101672.91;2077827;28;20115;-75
2021/12/15 00:10:33;;;;;;;10.45;4.13;;;;;;;19.05;39.50;101681.75;2077476;28;20057;-76
2021/12/15 00:11:38;;;;;;;8.52;4.35;;;;;;;19.02;40.10;101678.88;2078064;28;20037;-76
2021/12/15 00:12:44;;;;;;;9.40;4.15;;;;;;;19.04;39.71;101682.13;2077657;28;20041;-76
2021/12/15 00:13:52;;;;;;;7.80;4.32;;;;;;;19.01;40.00;101671.81;2076940;28;20731;-76
2021/12/15 00:14:57;;;;;;;7.13;4.15;;;;;;;18.96;39.88;101676.31;2078012;28;20041;-76
2021/12/15 00:16:01;;;;;;;6.43;3.90;;;;;;;18.99;39.81;101675.66;2078698;28;20088;-76
2021/12/15 00:17:06;;;;;;;6.97;4.10;;;;;;;18.98;39.80;101676.81;2078463;28;20060;-76
2021/12/15 00:18:11;;;;;;;7.85;3.60;;;;;;;19.04;39.68;101668.41;2077654;28;20077;-77
2021/12/15 00:19:18;;;;;;;8.15;3.80;;;;;;;19.06;39.86;101666.94;2077779;28;20054;-76
2021/12/15 00:20:23;;;;;;;9.07;3.75;;;;;;;19.09;39.55;101662.75;2077792;28;20076;-77
2021/12/15 00:21:28;;;;;;;5.90;3.35;;;;;;;19.05;39.21;101673.56;2078330;28;20084;-77
2021/12/15 00:22:32;;;;;;;6.30;3.55;;;;;;;19.04;39.46;101668.41;2078584;28;20049;-76
2021/12/15 00:23:36;;;;;;;7.78;3.88;;;;;;;18.97;39.75;101667.00;2078999;28;20045;-77
2021/12/15 00:24:42;;;;;;;7.60;4.85;;;;;;;18.95;39.82;101679.41;2078297;28;20058;-76
2021/12/15 00:25:48;;;;;;;5.88;3.60;;;;;;;18.95;39.81;101682.94;2078826;28;20053;-75
2021/12/15 00:26:54;;;;;;;7.15;3.92;;;;;;;18.93;39.95;101665.22;2078255;28;20053;-76
2021/12/15 00:28:02;;;;;;;5.90;3.45;;;;;;;18.96;39.75;101670.03;2077846;28;20049;-76
2021/12/15 00:29:08;;;;;;;6.72;3.58;;;;;;;18.96;39.82;101676.31;2070107;28;20049;-76
2021/12/15 00:30:15;;;;;;;7.30;3.97;;;;;;;18.95;39.62;101674.72;2078534;28;20046;-76
2021/12/15 00:31:19;;;;;;;6.85;4.35;;;;;;;18.96;39.67;101672.78;2077890;28;20049;-76
2021/12/15 00:32:24;;;;;;;7.15;4.90;;;;;;;18.96;39.78;101670.84;2070509;28;20528;-76
2021/12/15 00:33:28;;;;;;;5.78;3.47;;;;;;;18.91;39.55;101662.00;2070492;28;20057;-76
2021/12/15 00:34:34;;;;;;;6.22;3.53;;;;;;;18.86;39.63;101659.47;2069944;28;20084;-77
2021/12/15 00:35:38;;;;;;;6.80;4.25;;;;;;;18.86;39.84;101664.94;2070503;28;20693;-75
2021/12/15 00:36:44;;;;;;;8.55;6.30;;;;;;;18.82;40.13;101664.78;2069923;28;20052;-75
2021/12/15 00:37:49;;;;;;;9.93;7.43;;;;;;;18.81;39.97;101670.59;2071076;28;20052;-75
2021/12/15 00:38:53;;;;;;;9.45;4.47;;;;;;;18.83;40.18;101660.91;2077727;28;20049;-74
2021/12/15 00:39:58;;;;;;;8.43;3.75;;;;;;;18.89;39.72;101673.28;2078610;28;20042;-74
2021/12/15 00:41:02;;;;;;;7.00;3.97;;;;;;;18.88;39.92;101668.97;2077391;28;20060;-74
2021/12/15 00:42:10;;;;;;;7.47;3.90;;;;;;;18.90;39.74;101672.16;2077508;28;20753;-74
2021/12/15 00:43:16;;;;;;;6.28;3.80;;;;;;;18.91;39.95;101668.31;2078432;28;20049;-69
2021/12/15 00:44:23;;;;;;;7.65;3.88;;;;;;;18.90;40.01;101677.63;2077958;28;20072;-68
2021/12/15 00:45:27;;;;;;;8.25;3.80;;;;;;;18.90;39.85;101676.84;2070475;28;20053;-68
2021/12/15 00:46:32;;;;;;;6.00;3.60;;;;;;;18.92;39.71;101669.91;2078144;28;20061;-73
2021/12/15 00:47:36;;;;;;;7.35;3.50;;;;;;;18.92;39.70;101682.78;2078546;28;20060;-73
2021/12/15 00:48:42;;;;;;;6.45;3.88;;;;;;;18.86;39.80;101684.91;2077885;28;20842;-74
2021/12/15 00:49:45;;;;;;;6.00;4.00;;;;;;;18.82;39.63;101689.44;2070518;28;20050;-74
2021/12/15 00:50:50;;;;;;;9.50;5.30;;;;;;;18.79;40.05;101687.34;2069845;28;20050;-74
2021/12/15 00:51:57;;;;;;;9.05;4.70;;;;;;;18.79;39.95;101686.56;2078739;28;20041;-73
2021/12/15 00:53:00;;;;;;;5.32;3.85;;;;;;;18.74;39.46;101690.25;2080153;28;20041;-74
2021/12/15 00:54:06;;;;;;;7.13;3.33;;;;;;;18.69;40.19;101688.50;2079120;28;20136;-74
2021/12/15 00:55:14;;;;;;;5.20;3.40;;;;;;;18.73;39.96;101699.59;2071656;28;20073;-74
2021/12/15 00:56:20;;;;;;;4.78;3.50;;;;;;;18.75;39.82;101698.16;2079446;28;20041;-74
2021/12/15 00:57:27;;;;;;;7.05;3.38;;;;;;;18.71;39.94;101701.84;2079719;28;20046;-74
2021/12/15 00:58:30;;;;;;;4.93;3.10;;;;;;;18.68;40.26;101702.50;2072478;28;20054;-73
2021/12/15 00:59:38;;;;;;;6.43;3.70;;;;;;;18.66;40.49;101700.09;2079357;28;20049;-74
2021/12/15 01:00:44;;;;;;;5.15;3.45;;;;;;;18.70;40.19;101700.25;2079771;28;20049;-73
2021/12/15 01:01:50;;;;;;;5.60;3.55;;;;;;;18.67;39.80;101695.44;2074970;28;20046;-72
2021/12/15 01:02:55;;;;;;;5.60;3.67;;;;;;;18.61;40.71;101691.25;2079282;28;20053;-72
2021/12/15 01:04:00;;;;;;;5.88;3.08;;;;;;;18.68;40.55;101691.56;2087279;28;20388;-73
2021/12/15 01:05:08;;;;;;;7.95;3.00;;;;;;;18.70;40.54;101700.25;2087747;28;20057;-73
2021/12/15 01:06:17;;;;;;;5.43;3.10;;;;;;;18.69;40.26;101702.19;2087380;28;20049;-73
2021/12/15 01:07:21;;;;;;;5.22;3.25;;;;;;;18.79;40.48;101708.47;2087759;28;20064;-72
2021/12/15 01:08:27;;;;;;;7.43;4.47;;;;;;;18.73;40.39;101705.09;2087532;28;20884;-73
2021/12/15 01:09:38;;;;;;;4.80;3.38;;;;;;;18.71;39.92;101710.88;2088093;28;20068;-73
2021/12/15 01:10:54;;;;;;;;;;;;;;;18.77;40.28;101711.50;2087909;28;20079;-73
2021/12/15 01:12:15;;;;;;;7.28;3.63;;;;;;;18.74;40.23;101706.69;2081083;28;19928;-73
2021/12/15 01:20:19;;;;;;;5.88;3.13;;;;;;;18.74;39.96;101695.72;2088179;28;20106;-72
2021/12/15 01:21:25;;;;;;;16.05;13.20;;;;;;;18.75;40.13;101694.59;2088182;28;20068;-72
2021/12/15 01:22:33;;;;;;;7.03;4.22;;;;;;;18.77;39.96;101695.06;2087991;28;20049;-72
2021/12/15 01:23:37;;;;;;;8.50;6.20;;;;;;;18.73;40.22;101699.59;2086863;28;20044;-72
2021/12/15 01:24:45;;;;;;;8.25;5.40;;;;;;;18.64;40.22;101685.13;2086798;28;20398;-72
2021/12/15 01:25:51;;;;;;;8.20;3.75;;;;;;;18.74;39.85;101684.78;2086460;28;20136;-71
2021/12/15 01:26:58;;;;;;;6.45;3.42;;;;;;;18.71;39.81;101691.69;2087229;28;20048;-72
2021/12/15 01:28:02;;;;;;;5.43;2.97;;;;;;;18.53;40.01;101668.25;2087329;28;20045;-74
2021/12/15 01:29:08;;;;;;;5.70;3.13;;;;;;;18.71;39.89;101686.22;2088173;28;20053;-73
2021/12/15 01:30:21;;;;;;;4.90;3.20;;;;;;;18.77;40.26;101688.81;2087052;28;20053;-74
2021/12/15 01:31:28;;;;;;;5.55;3.28;;;;;;;18.80;39.78;101694.44;2080395;28;20076;-74
2021/12/15 01:32:33;;;;;;;7.88;3.20;;;;;;;18.80;40.09;101694.44;2078882;28;20049;-74
2021/12/15 01:33:40;;;;;;;4.90;3.13;;;;;;;18.81;39.90;101701.50;2079432;28;20049;-71
2021/12/15 01:34:43;;;;;;;4.53;2.83;;;;;;;18.79;39.84;101687.34;2087821;28;20112;-71
2021/12/15 01:35:53;;;;;;;6.20;3.53;;;;;;;18.79;40.21;101692.03;2087240;28;20051;-71
2021/12/15 01:36:57;;;;;;;4.90;3.10;;;;;;;18.77;40.05;101689.59;2087613;28;20519;-71
2021/12/15 01:38:02;;;;;;;5.85;3.45;;;;;;;18.71;39.90;101690.91;2086967;28;20481;-72
2021/12/15 01:39:09;;;;;;;5.80;4.53;;;;;;;18.64;39.93;101696.09;2087307;28;20045;-71
2021/12/15 01:40:26;;;;;;;6.70;4.80;;;;;;;18.64;39.96;101691.41;2086697;28;20729;-71
2021/12/15 01:41:29;;;;;;;4.53;2.78;;;;;;;18.69;40.10;101687.69;2087761;28;20440;-71
2021/12/15 01:42:35;;;;;;;4.55;3.25;;;;;;;18.67;40.19;101687.22;2086576;28;20060;-72
2021/12/15 01:43:51;;;;;;;3.90;3.05;;;;;;;18.68;39.89;101688.81;2086485;28;20527;-72
2021/12/15 01:47:45;;;;;;;4.03;2.83;;;;;;;18.64;40.17;101691.41;2054417;28;20046;-70
2021/12/15 01:48:57;;;;;;;4.65;2.80;;;;;;;18.66;40.60;101693.84;2079167;28;20488;-71
2021/12/15 01:50:01;;;;;;;4.20;3.10;;;;;;;18.63;40.44;101700.75;2079832;28;20060;-70
2021/12/15 01:51:06;;;;;;;5.85;3.00;;;;;;;18.65;40.01;101698.47;2078706;28;20436;-76
2021/12/15 01:52:13;;;;;;;4.10;2.60;;;;;;;18.56;40.36;101688.69;2079187;28;20054;-74
2021/12/15 01:53:17;;;;;;;4.95;2.80;;;;;;;18.64;40.43;101709.78;2079348;28;20491;-68
2021/12/15 01:54:25;;;;;;;4.45;2.78;;;;;;;18.63;40.22;101711.72;2079021;28;20763;-69
2021/12/15 01:55:32;;;;;;;4.57;2.58;;;;;;;18.62;40.06;101715.56;2086634;28;20436;-70
2021/12/15 01:56:37;;;;;;;5.57;3.33;;;;;;;18.61;40.67;101713.16;2086967;28;20056;-70
2021/12/15 01:57:42;;;;;;;5.45;2.60;;;;;;;18.66;40.40;101715.72;2078814;28;20733;-69
2021/12/15 01:58:45;;;;;;;3.60;2.50;;;;;;;18.65;40.46;101692.22;2086774;28;20056;-70
2021/12/15 01:59:50;;;;;;;4.47;2.88;;;;;;;18.69;40.00;101720.53;2086651;28;20439;-70
2021/12/15 02:00:57;;;;;;;4.88;3.40;;;;;;;18.68;39.85;101713.44;2079010;28;20045;-76
2021/12/15 02:02:07;;;;;;;4.15;2.67;;;;;;;18.67;40.11;101717.34;2079061;28;20050;-76
2021/12/15 02:03:11;;;;;;;3.45;2.72;;;;;;;18.67;40.24;101709.13;2078821;28;20049;-74
2021/12/15 02:04:16;;;;;;;4.50;2.38;;;;;;;18.66;40.03;101715.72;2079445;28;20053;-74
2021/12/15 02:05:23;;;;;;;3.58;2.17;;;;;;;18.66;39.76;101707.53;2078891;28;20049;-74
2021/12/15 02:06:27;;;;;;;5.43;2.22;;;;;;;18.68;39.76;101718.94;2071703;28;20054;-74
2021/12/15 02:07:32;;;;;;;3.22;2.50;;;;;;;18.66;39.84;101711.06;2070875;28;20447;-75
2021/12/15 02:08:37;;;;;;;4.07;2.25;;;;;;;18.63;40.02;101716.38;2078122;28;20053;-76
2021/12/15 02:10:01;;;;;;;4.85;2.65;;;;;;;18.59;39.88;101712.66;2079258;28;20050;-75
2021/12/15 02:11:05;;;;;;;4.10;2.28;;;;;;;18.59;40.04;101705.25;2079784;28;20049;-74
2021/12/15 02:12:15;;;;;;;3.85;2.92;;;;;;;18.60;40.23;101717.03;2079704;28;20056;-76
2021/12/15 02:13:21;;;;;;;4.30;2.40;;;;;;;18.61;39.88;101707.69;2079719;28;20045;-76
2021/12/15 02:14:30;;;;;;;3.92;2.38;;;;;;;18.61;40.06;101713.16;2079481;28;20052;-76
2021/12/15 02:15:39;;;;;;;3.50;2.30;;;;;;;18.58;39.59;101709.13;2079822;28;20045;-75
2021/12/15 02:16:42;;;;;;;3.67;2.10;;;;;;;18.55;39.80;101706.25;2080152;28;20050;-75
2021/12/15 02:17:49;;;;;;;6.68;2.05;;;;;;;18.50;40.19;101708.03;2078957;28;20052;-75
2021/12/15 02:18:57;;;;;;;3.33;2.40;;;;;;;18.55;40.41;101708.97;2072300;28;20555;-75
2021/12/15 02:20:04;;;;;;;2.58;2.10;;;;;;;18.52;40.34;101713.97;2078209;28;20053;-73
2021/12/15 02:21:18;;;;;;;3.58;2.47;;;;;;;18.58;40.14;101708.34;2078380;28;20064;-73
2021/12/15 02:22:23;;;;;;;2.75;2.00;;;;;;;18.49;40.23;101689.19;2079530;28;20041;-73
2021/12/15 02:23:35;;;;;;;2.90;2.17;;;;;;;18.50;40.04;101699.81;2078710;28;20057;-75
2021/12/15 02:24:40;;;;;;;4.43;2.28;;;;;;;18.54;40.32;101697.22;2072589;28;20102;-73
2021/12/15 02:25:47;;;;;;;3.30;2.10;;;;;;;18.52;40.09;101696.75;2071678;28;20046;-74
2021/12/15 02:26:59;;;;;;;3.85;2.20;;;;;;;18.54;40.44;101699.19;2071524;28;20053;-72
2021/12/15 02:28:06;;;;;;;3.42;2.20;;;;;;;18.54;40.02;101696.44;2078550;28;20076;-71
2021/12/15 02:29:16;;;;;;;2.75;2.10;;;;;;;18.60;39.79;101692.41;2078850;28;20049;-71
2021/12/15 02:30:44;;;;;;;3.13;1.92;;;;;;;18.61;39.82;101699.47;2071341;28;20054;-72
2021/12/15 02:32:04;;;;;;;6.38;2.20;;;;;;;18.60;40.28;101689.66;2078626;28;20496;-71
2021/12/15 02:33:24;;;;;;;3.00;1.95;;;;;;;18.60;39.61;101695.13;2078571;28;20060;-71
2021/12/15 02:34:55;;;;;;;2.95;2.03;;;;;;;18.59;39.92;101688.84;2073138;28;20053;-72
2021/12/15 02:37:22;;;;;;;3.85;1.80;;;;;;;18.56;39.91;101685.94;2078897;28;20045;-71
2021/12/15 02:38:29;;;;;;;3.15;2.10;;;;;;;18.59;39.80;101691.56;2078244;28;20053;-71
2021/12/15 02:39:35;;;;;;;2.58;1.80;;;;;;;18.60;39.75;101690.47;2070245;28;20050;-71
2021/12/15 02:40:41;;;;;;;3.20;1.85;;;;;;;18.60;39.61;101692.41;2078069;28;20779;-71
2021/12/15 02:41:46;;;;;;;2.60;1.88;;;;;;;18.62;39.84;101687.38;2078897;28;20056;-71
2021/12/15 02:42:54;;;;;;;3.58;2.05;;;;;;;18.61;39.90;101702.22;2078288;28;20512;-71
2021/12/15 02:44:00;;;;;;;2.33;1.70;;;;;;;18.62;40.07;101692.88;2078704;28;20057;-72
2021/12/15 02:45:11;;;;;;;2.40;1.73;;;;;;;18.62;39.82;101699.13;2079479;28;20049;-71
2021/12/15 02:46:15;;;;;;;;;;;;;;;18.65;39.45;101689.47;2079742;28;20409;-72
2021/12/15 02:47:26;;;;;;;2.63;1.70;;;;;;;18.58;39.74;101691.91;2079309;28;19930;-71
2021/12/15 02:48:29;;;;;;;3.70;2.15;;;;;;;18.64;39.70;101696.09;2079637;28;20481;-71
2021/12/15 02:49:37;;;;;;;4.53;2.42;;;;;;;18.59;39.82;101696.25;2078693;28;20049;-71
2021/12/15 02:50:41;;;;;;;5.68;2.00;;;;;;;18.62;39.89;101692.88;2078596;28;20098;-72
2021/12/15 02:51:49;;;;;;;3.15;1.85;;;;;;;18.63;39.58;101694.50;2078662;28;20053;-72
2021/12/15 02:52:58;;;;;;;2.20;1.60;;;;;;;18.62;39.52;101693.66;2079001;28;20390;-72
2021/12/15 02:54:03;;;;;;;3.72;2.03;;;;;;;18.63;39.71;101691.75;2079166;28;20084;-71
2021/12/15 02:55:09;;;;;;;4.28;1.65;;;;;;;18.58;39.90;101694.66;2078681;28;20052;-70
2021/12/15 02:56:14;;;;;;;2.53;1.80;;;;;;;18.59;39.54;101686.09;2078846;28;20057;-71
2021/12/15 02:57:19;;;;;;;3.22;1.80;;;;;;;18.61;39.64;101686.59;2078753;28;20080;-70
2021/12/15 02:58:32;;;;;;;5.28;1.65;;;;;;;18.62;39.47;101684.66;2079563;28;20058;-72
2021/12/15 02:59:49;;;;;;;3.55;1.90;;;;;;;18.59;39.53;101677.09;2078636;28;20393;-71
2021/12/15 03:00:59;;;;;;;2.78;1.63;;;;;;;18.61;39.76;101681.13;2078904;28;20398;-73
2021/12/15 03:02:10;;;;;;;3.08;1.92;;;;;;;18.59;39.48;101674.34;2084923;28;20613;-70
2021/12/15 03:03:45;;;;;;;4.38;1.95;;;;;;;18.62;39.57;101681.91;2087319;28;20049;-68
2021/12/15 03:04:48;;;;;;;2.13;1.33;;;;;;;18.57;40.25;101677.44;2086723;28;20049;-72
2021/12/15 03:07:28;;;;;;;3.13;1.77;;;;;;;18.61;39.68;101685.78;2086081;28;20045;-72
2021/12/15 03:08:50;;;;;;;4.03;2.00;;;;;;;18.59;39.60;101683.38;2080044;28;20060;-72
2021/12/15 03:16:39;;;;;;;4.72;1.63;;;;;;;18.63;39.61;101678.88;2086243;28;20102;-73
2021/12/15 03:17:51;;;;;;;1.98;1.55;;;;;;;18.63;39.63;101681.59;2086986;28;20064;-73
2021/12/15 03:18:59;;;;;;;6.60;1.65;;;;;;;18.63;39.57;101678.06;2086819;28;20067;-73
2021/12/15 03:20:04;;;;;;;3.80;1.65;;;;;;;18.61;39.66;101675.63;2086798;28;20053;-74
2021/12/15 03:21:16;;;;;;;3.40;1.90;;;;;;;18.61;39.50;101672.09;2078265;28;20056;-74
2021/12/15 03:22:20;;;;;;;3.97;1.45;;;;;;;18.60;39.41;101667.78;2078684;28;20053;-72
2021/12/15 03:23:30;;;;;;;3.38;1.60;;;;;;;18.59;39.71;101660.66;2078662;28;20061;-72
2021/12/15 03:24:37;;;;;;;4.28;1.83;;;;;;;18.63;39.61;101664.38;2078011;28;20041;-71
2021/12/15 03:25:42;;;;;;;4.03;1.60;;;;;;;18.63;39.64;101667.13;2078138;28;20056;-72
2021/12/15 03:26:56;;;;;;;3.90;1.77;;;;;;;18.66;39.65;101659.06;2078945;28;20042;-72
2021/12/15 03:34:09;;;;;;;2.15;1.65;;;;;;;18.62;39.25;101666.28;2077906;28;20430;-70
2021/12/15 03:35:33;;;;;;;4.03;1.60;;;;;;;18.64;39.48;101669.50;2079116;28;20048;-71
2021/12/15 03:38:11;;;;;;;5.15;3.65;;;;;;;18.63;39.64;101662.44;2074178;28;20496;-70
2021/12/15 03:39:16;;;;;;;6.10;1.90;;;;;;;18.63;39.23;101662.44;2078185;28;20053;-70
2021/12/15 03:40:28;;;;;;;2.03;1.48;;;;;;;18.62;39.04;101666.28;2078469;28;20049;-71
2021/12/15 03:41:33;;;;;;;4.18;1.70;;;;;;;18.60;39.21;101665.84;2078564;28;20056;-72
2021/12/15 03:42:41;;;;;;;1.95;1.35;;;;;;;18.58;39.18;101664.53;2078920;28;20046;-71
2021/12/15 03:43:46;;;;;;;2.97;1.60;;;;;;;18.60;39.29;101667.78;2078429;28;20045;-71
2021/12/15 03:44:50;;;;;;;3.25;1.60;;;;;;;18.60;38.88;101656.81;2078420;28;20053;-70
2021/12/15 03:45:59;;;;;;;4.20;1.73;;;;;;;18.59;39.12;101666.94;2078201;28;20049;-71
2021/12/15 03:47:10;;;;;;;3.03;1.50;;;;;;;18.64;39.26;101657.78;2078518;28;20136;-72
2021/12/15 03:48:23;;;;;;;3.05;1.50;;;;;;;18.67;39.23;101657.13;2078918;28;20052;-72
2021/12/15 03:49:27;;;;;;;2.60;1.42;;;;;;;18.70;39.11;101651.00;2078317;28;20501;-72
2021/12/15 03:50:33;;;;;;;5.20;1.50;;;;;;;18.67;39.03;101654.38;2078504;28;20526;-70
2021/12/15 03:51:38;;;;;;;2.75;1.50;;;;;;;18.67;39.35;101651.66;2078858;28;20045;-70
2021/12/15 03:52:48;;;;;;;2.28;1.50;;;;;;;18.67;39.22;101649.69;2078118;28;20400;-70
2021/12/15 03:53:53;;;;;;;2.28;1.45;;;;;;;18.66;39.57;101650.03;2078367;28;20064;-69
2021/12/15 03:54:59;;;;;;;1.38;1.20;;;;;;;18.66;39.16;101647.31;2077907;28;20072;-70
2021/12/15 03:56:10;;;;;;;2.92;1.60;;;;;;;18.68;39.19;101650.50;2077104;28;20049;-70
2021/12/15 03:57:15;;;;;;;3.28;1.45;;;;;;;18.69;39.21;101654.84;2077087;28;20045;-70
2021/12/15 03:58:22;;;;;;;3.72;1.40;;;;;;;18.67;39.21;101649.69;2077048;28;20671;-70
2021/12/15 03:59:28;;;;;;;2.42;1.40;;;;;;;18.66;39.12;101650.84;2076863;28;20532;-69
2021/12/15 04:00:36;;;;;;;11.38;1.55;;;;;;;18.68;39.07;101647.75;2078021;28;20083;-68
2021/12/15 04:01:41;;;;;;;1.92;1.40;;;;;;;18.68;38.80;101651.31;2079742;28;20057;-69
2021/12/15 04:02:46;;;;;;;2.30;1.42;;;;;;;18.65;38.96;101659.38;2086634;28;20049;-69
2021/12/15 04:03:54;;;;;;;3.10;1.50;;;;;;;18.61;39.52;101655.69;2087041;28;20056;-69
2021/12/15 04:04:59;;;;;;;4.15;1.10;;;;;;;18.62;39.57;101638.94;2086462;28;20072;-72
2021/12/15 04:07:30;;;;;;;3.40;1.10;;;;;;;18.69;39.07;101649.38;2085969;28;20412;-72
2021/12/15 04:08:34;;;;;;;2.03;1.40;;;;;;;18.67;39.04;101663.38;2086137;28;20045;-72
2021/12/15 04:09:41;;;;;;;5.38;1.27;;;;;;;18.68;39.01;101661.44;2086308;28;20037;-72
2021/12/15 04:10:45;;;;;;;2.30;1.27;;;;;;;18.66;38.81;101661.00;2086210;28;20884;-71
2021/12/15 04:11:55;;;;;;;2.10;1.30;;;;;;;18.67;38.97;101657.13;2086716;28;20053;-72
2021/12/15 04:13:01;;;;;;;3.33;1.50;;;;;;;18.68;38.82;101658.72;2086507;28;20076;-72
2021/12/15 04:14:08;;;;;;;1.67;1.20;;;;;;;18.69;39.04;101660.31;2086700;28;20061;-73
2021/12/15 04:15:28;;;;;;;4.38;1.80;;;;;;;18.64;38.84;101655.03;2086193;28;20060;-72
2021/12/15 04:18:01;;;;;;;2.30;1.40;;;;;;;18.68;38.88;101658.72;2085787;28;20080;-71
2021/12/15 04:19:07;;;;;;;5.45;1.50;;;;;;;18.72;39.03;101663.22;2086644;28;20060;-71
2021/12/15 04:20:15;;;;;;;2.10;1.27;;;;;;;18.70;38.86;101657.25;2086461;28;20056;-72
2021/12/15 04:21:19;;;;;;;3.92;1.30;;;;;;;18.78;38.84;101661.09;2086131;28;20053;-71
2021/12/15 04:22:28;;;;;;;2.78;1.42;;;;;;;18.76;38.98;101660.63;2085660;28;20049;-72
2021/12/15 04:23:33;;;;;;;3.70;1.60;;;;;;;18.70;38.74;101656.47;2084959;28;20049;-71
2021/12/15 04:24:37;;;;;;;3.83;1.90;;;;;;;18.66;38.91;101664.53;2086590;28;20060;-71
2021/12/15 04:25:43;;;;;;;2.00;1.30;;;;;;;18.67;39.22;101662.59;2086859;28;20053;-71
2021/12/15 04:26:51;;;;;;;2.00;1.10;;;;;;;18.68;39.00;101658.72;2087563;28;20044;-71
2021/12/15 04:27:58;;;;;;;1.55;1.10;;;;;;;18.62;38.90;101671.75;2096166;28;20307;-71
2021/12/15 04:29:03;;;;;;;2.15;1.13;;;;;;;18.63;39.06;101669.84;2094604;28;20064;-71
2021/12/15 04:30:11;;;;;;;2.75;1.73;;;;;;;18.57;39.18;101665.69;2087748;28;20584;-71
2021/12/15 04:31:20;;;;;;;2.55;1.30;;;;;;;18.62;39.17;101666.28;2088040;28;20052;-71
2021/12/15 04:32:30;;;;;;;2.00;1.30;;;;;;;18.67;39.09;101665.31;2088074;28;20401;-72
2021/12/15 04:33:40;;;;;;;3.20;2.30;;;;;;;18.61;38.99;101670.16;2088649;28;20036;-73
2021/12/15 04:34:45;;;;;;;1.88;1.48;;;;;;;18.58;38.79;101678.22;2088037;28;20053;-72
2021/12/15 04:35:54;;;;;;;3.08;2.33;;;;;;;18.51;39.42;101671.31;2088103;28;20060;-73
2021/12/15 04:37:00;;;;;;;3.67;2.15;;;;;;;18.45;39.62;101672.63;2087948;28;20048;-74
2021/12/15 04:38:03;;;;;;;2.85;1.90;;;;;;;18.46;39.25;101676.16;2079425;28;20116;-72
2021/12/15 04:39:11;;;;;;;2.42;1.90;;;;;;;18.45;39.45;101672.63;2087089;28;20710;-72
2021/12/15 04:40:18;;;;;;;2.83;1.50;;;;;;;18.49;39.10;101678.25;2087853;28;20057;-72
2021/12/15 04:41:23;;;;;;;3.65;1.65;;;;;;;18.46;39.24;101684.38;2087347;28;20052;-73
2021/12/15 04:42:29;;;;;;;2.20;1.58;;;;;;;18.43;39.17;101685.81;2088204;28;20056;-73
2021/12/15 04:43:39;;;;;;;3.88;2.80;;;;;;;18.41;39.27;101679.09;2088318;28;20076;-72
2021/12/15 04:44:42;;;;;;;2.85;2.15;;;;;;;18.40;39.21;101677.44;2088415;28;20045;-72
2021/12/15 04:45:50;;;;;;;2.38;1.70;;;;;;;18.40;39.21;101677.44;2088443;28;20041;-72
2021/12/15 04:47:00;;;;;;;3.40;2.35;;;;;;;18.29;39.64;101679.69;2088686;28;20067;-75
2021/12/15 04:48:05;;;;;;;3.08;1.60;;;;;;;18.34;39.31;101685.00;2087440;28;20052;-76
2021/12/15 04:49:11;;;;;;;4.00;1.65;;;;;;;18.38;39.14;101675.06;2087440;28;20449;-75
2021/12/15 04:50:17;;;;;;;1.60;1.40;;;;;;;18.43;39.07;101676.81;2087630;28;20049;-71
2021/12/15 04:51:22;;;;;;;2.47;1.70;;;;;;;18.48;39.11;101677.44;2088188;28;20408;-71
2021/12/15 04:52:32;;;;;;;3.15;1.70;;;;;;;18.52;39.08;101678.38;2086968;28;20048;-68
2021/12/15 04:53:37;;;;;;;2.85;2.00;;;;;;;18.52;39.24;101680.31;2087812;28;20067;-69
2021/12/15 04:54:44;;;;;;;2.78;1.77;;;;;;;18.54;39.20;101674.53;2087348;28;20072;-71
2021/12/15 04:55:47;;;;;;;5.32;1.30;;;;;;;18.63;40.06;101672.59;2088008;28;20677;-68
2021/12/15 04:56:52;;;;;;;1.80;1.40;;;;;;;18.81;40.56;101668.66;2087887;28;20063;-72
2021/12/15 04:58:01;;;;;;;2.95;1.50;;;;;;;18.99;40.47;101670.19;2088518;28;20049;-72
2021/12/15 04:59:05;;;;;;;2.75;1.40;;;;;;;19.15;40.77;101675.13;2088297;28;20505;-74
2021/12/15 05:00:14;;;;;;;4.93;1.40;;;;;;;19.29;40.44;101659.28;2087689;28;20381;-74
2021/12/15 05:01:18;;;;;;;3.08;1.27;;;;;;;19.43;40.39;101665.31;2084970;28;20054;-73
2021/12/15 05:02:26;;;;;;;3.40;1.45;;;;;;;19.56;40.35;101662.66;2079070;28;20049;-72
2021/12/15 05:03:30;;;;;;;2.13;1.17;;;;;;;19.70;40.05;101667.88;2079458;28;20053;-72
2021/12/15 05:04:37;;;;;;;5.38;1.27;;;;;;;19.79;40.04;101668.59;2079713;28;20072;-73
2021/12/15 05:05:41;;;;;;;2.20;1.33;;;;;;;19.87;39.97;101651.28;2079239;28;20524;-72
2021/12/15 05:06:47;;;;;;;1.77;1.20;;;;;;;19.95;39.97;101658.69;2079892;28;20056;-72
2021/12/15 05:07:52;;;;;;;4.30;1.40;;;;;;;20.05;39.85;101657.47;2079480;28;20037;-74
2021/12/15 05:08:57;;;;;;;4.22;1.55;;;;;;;20.12;39.77;101654.97;2079356;28;20056;-73
2021/12/15 05:10:02;;;;;;;1.42;1.00;;;;;;;20.21;39.77;101672.16;2079574;28;20057;-73
2021/12/15 05:11:09;;;;;;;5.80;1.23;;;;;;;20.26;39.89;101660.16;2079192;28;20064;-74
2021/12/15 05:12:13;;;;;;;2.75;1.27;;;;;;;20.32;39.61;101661.56;2079836;28;20049;-73
2021/12/15 05:13:23;;;;;;;1.67;0.90;;;;;;;20.34;39.50;101662.81;2080103;28;20057;-74
2021/12/15 05:14:28;;;;;;;2.15;1.30;;;;;;;20.40;39.56;101668.91;2079836;28;20045;-74
2021/12/15 05:15:33;;;;;;;2.20;1.20;;;;;;;20.36;39.46;101655.06;2080389;28;20072;-75
2021/12/15 05:16:39;;;;;;;2.47;1.20;;;;;;;20.47;39.50;101660.91;2080321;28;20045;-74
2021/12/15 05:17:45;;;;;;;3.10;1.33;;;;;;;20.50;39.47;101653.94;2079644;28;20046;-74
2021/12/15 05:18:49;;;;;;;3.40;1.20;;;;;;;20.52;39.36;101657.97;2079462;28;20050;-74
2021/12/15 05:19:59;;;;;;;3.42;1.50;;;;;;;20.56;39.57;101658.09;2079353;28;20050;-74
2021/12/15 05:21:05;;;;;;;2.80;1.23;;;;;;;20.57;39.55;101662.41;2079839;28;20045;-73
2021/12/15 05:22:12;;;;;;;1.80;1.15;;;;;;;20.58;39.51;101670.34;2079575;28;20060;-72
2021/12/15 05:23:18;;;;;;;1.30;1.05;;;;;;;20.61;39.60;101666.09;2079758;28;20041;-72
2021/12/15 05:24:30;;;;;;;2.55;1.10;;;;;;;20.62;39.69;101664.97;2080185;28;20060;-72
2021/12/15 05:25:36;;;;;;;2.08;1.10;;;;;;;20.64;39.47;101670.09;2079352;28;20053;-73
2021/12/15 05:26:40;;;;;;;3.95;1.40;;;;;;;20.66;39.69;101659.59;2079204;28;20061;-71
2021/12/15 05:27:45;;;;;;;4.18;1.40;;;;;;;20.69;39.72;101665.22;2079544;28;20339;-73
2021/12/15 05:28:52;;;;;;;5.82;1.70;;;;;;;20.71;39.72;101668.44;2078521;28;20049;-75
2021/12/15 05:29:57;;;;;;;10.65;2.20;;;;;;;20.73;39.81;101652.41;2078613;28;20504;-76
2021/12/15 05:31:03;;;;;;;8.00;1.80;;;;;;;20.76;39.85;101656.41;2079945;28;20049;-74
2021/12/15 05:32:11;;;;;;;7.20;1.95;;;;;;;20.77;39.75;101664.34;2079204;28;20057;-75
2021/12/15 05:33:15;;;;;;;17.90;2.28;;;;;;;20.81;39.83;101647.97;2079279;28;20080;-69
2021/12/15 05:34:21;;;;;;;13.73;2.10;;;;;;;20.84;39.88;101654.72;2080061;28;20350;-72
2021/12/15 05:35:25;;;;;;;10.25;2.95;;;;;;;20.85;39.77;101650.81;2079644;28;20049;-71
2021/12/15 05:36:30;;;;;;;16.40;2.33;;;;;;;20.86;39.69;101644.97;2079094;28;20048;-71
2021/12/15 05:37:37;;;;;;;18.15;2.85;;;;;;;20.88;39.91;101650.16;2078079;28;20045;-72
2021/12/15 05:38:42;;;;;;;15.60;2.35;;;;;;;20.88;39.78;101641.91;2078519;28;20436;-72
2021/12/15 05:39:53;;;;;;;9.32;2.60;;;;;;;20.90;39.81;101647.88;2078679;28;20041;-72
2021/12/15 05:40:59;;;;;;;22.63;3.20;;;;;;;20.90;39.80;101645.91;2078612;28;20048;-72
2021/12/15 05:42:04;;;;;;;14.60;2.55;;;;;;;20.90;39.85;101650.63;2078759;28;20046;-71